sensor_id;sensor_type;location;lat;lon;timestamp;P1;durP1;ratioP1;P2;durP2;ratioP2
14611;SDS011;7392;52.078;11.650;2022-09-21T00:00:45;0.70;;;0.60;;
14611;SDS011;7392;52.078;11.650;2022-09-21T00:03:13;1.00;;;0.30;;
14611;SDS011;7392;52.078;11.650;2022-09-21T00:05:41;0.63;;;0.43;;
14611;SDS011;7392;52.078;11.650;2022-09-21T00:08:09;0.87;;;0.50;;
14611;SDS011;7392;52.078;11.650;2022-09-21T00:10:39;0.60;;;0.53;;
14611;SDS011;7392;52.078;11.650;2022-09-21T00:13:09;0.60;;;0.40;;
14611;SDS011;7392;52.078;11.650;2022-09-21T00:15:38;0.80;;;0.57;;
14611;SDS011;7392;52.078;11.650;2022-09-21T00:18:08;0.60;;;0.53;;
14611;SDS011;7392;52.078;11.650;2022-09-21T00:20:36;1.30;;;0.60;;
14611;SDS011;7392;52.078;11.650;2022-09-21T00:23:08;0.53;;;0.50;;
14611;SDS011;7392;52.078;11.650;2022-09-21T00:25:36;0.40;;;0.40;;
14611;SDS011;7392;52.078;11.650;2022-09-21T00:28:04;0.37;;;0.33;;
14611;SDS011;7392;52.078;11.650;2022-09-21T00:30:33;0.73;;;0.60;;
14611;SDS011;7392;52.078;11.650;2022-09-21T00:33:00;1.70;;;0.80;;
14611;SDS011;7392;52.078;11.650;2022-09-21T00:35:28;1.07;;;0.70;;
14611;SDS011;7392;52.078;11.650;2022-09-21T00:37:59;1.13;;;0.70;;
14611;SDS011;7392;52.078;11.650;2022-09-21T00:40:27;0.77;;;0.60;;
14611;SDS011;7392;52.078;11.650;2022-09-21T00:43:09;0.97;;;0.60;;
14611;SDS011;7392;52.078;11.650;2022-09-21T00:45:39;0.70;;;0.60;;
14611;SDS011;7392;52.078;11.650;2022-09-21T00:48:08;0.67;;;0.50;;
14611;SDS011;7392;52.078;11.650;2022-09-21T00:50:36;0.60;;;0.50;;
14611;SDS011;7392;52.078;11.650;2022-09-21T00:53:08;0.30;;;0.30;;
14611;SDS011;7392;52.078;11.650;2022-09-21T00:55:38;0.50;;;0.50;;
14611;SDS011;7392;52.078;11.650;2022-09-21T00:58:10;0.90;;;0.60;;
14611;SDS011;7392;52.078;11.650;2022-09-21T01:00:44;0.57;;;0.47;;
14611;SDS011;7392;52.078;11.650;2022-09-21T01:03:12;0.50;;;0.50;;
14611;SDS011;7392;52.078;11.650;2022-09-21T01:05:40;0.50;;;0.50;;
14611;SDS011;7392;52.078;11.650;2022-09-21T01:08:08;0.47;;;0.47;;
14611;SDS011;7392;52.078;11.650;2022-09-21T01:10:41;0.60;;;0.40;;
14611;SDS011;7392;52.078;11.650;2022-09-21T01:13:24;0.67;;;0.53;;
14611;SDS011;7392;52.078;11.650;2022-09-21T01:16:03;0.50;;;0.50;;
14611;SDS011;7392;52.078;11.650;2022-09-21T01:18:39;0.60;;;0.43;;
14611;SDS011;7392;52.078;11.650;2022-09-21T01:21:14;1.63;;;0.63;;
14611;SDS011;7392;52.078;11.650;2022-09-21T01:23:55;0.93;;;0.50;;
14611;SDS011;7392;52.078;11.650;2022-09-21T01:26:42;0.50;;;0.50;;
14611;SDS011;7392;52.078;11.650;2022-09-21T01:29:27;0.63;;;0.60;;
14611;SDS011;7392;52.078;11.650;2022-09-21T01:31:59;0.30;;;0.30;;
14611;SDS011;7392;52.078;11.650;2022-09-21T01:34:33;1.10;;;0.70;;
14611;SDS011;7392;52.078;11.650;2022-09-21T01:37:06;0.80;;;0.70;;
14611;SDS011;7392;52.078;11.650;2022-09-21T01:39:39;0.70;;;0.70;;
14611;SDS011;7392;52.078;11.650;2022-09-21T01:42:11;1.37;;;0.70;;
14611;SDS011;7392;52.078;11.650;2022-09-21T01:44:42;1.87;;;0.80;;
14611;SDS011;7392;52.078;11.650;2022-09-21T01:47:11;0.97;;;0.80;;
14611;SDS011;7392;52.078;11.650;2022-09-21T01:49:42;1.80;;;0.80;;
14611;SDS011;7392;52.078;11.650;2022-09-21T01:52:13;1.60;;;0.70;;
14611;SDS011;7392;52.078;11.650;2022-09-21T01:54:46;1.07;;;0.77;;
14611;SDS011;7392;52.078;11.650;2022-09-21T01:57:18;1.67;;;0.90;;
14611;SDS011;7392;52.078;11.650;2022-09-21T01:59:54;0.97;;;0.77;;
14611;SDS011;7392;52.078;11.650;2022-09-21T02:02:26;1.20;;;0.70;;
14611;SDS011;7392;52.078;11.650;2022-09-21T02:04:59;0.40;;;0.40;;
14611;SDS011;7392;52.078;11.650;2022-09-21T02:07:28;1.23;;;0.60;;
14611;SDS011;7392;52.078;11.650;2022-09-21T02:09:58;0.70;;;0.60;;
14611;SDS011;7392;52.078;11.650;2022-09-21T02:12:28;0.40;;;0.40;;
14611;SDS011;7392;52.078;11.650;2022-09-21T02:14:58;0.60;;;0.50;;
14611;SDS011;7392;52.078;11.650;2022-09-21T02:17:31;0.60;;;0.57;;
14611;SDS011;7392;52.078;11.650;2022-09-21T02:20:10;0.60;;;0.60;;
14611;SDS011;7392;52.078;11.650;2022-09-21T02:22:53;0.87;;;0.77;;
14611;SDS011;7392;52.078;11.650;2022-09-21T02:25:32;1.00;;;0.87;;
14611;SDS011;7392;52.078;11.650;2022-09-21T02:28:07;1.37;;;0.80;;
14611;SDS011;7392;52.078;11.650;2022-09-21T02:30:45;1.67;;;0.80;;
14611;SDS011;7392;52.078;11.650;2022-09-21T02:33:21;0.80;;;0.80;;
14611;SDS011;7392;52.078;11.650;2022-09-21T02:35:54;1.13;;;0.90;;
14611;SDS011;7392;52.078;11.650;2022-09-21T02:38:29;1.30;;;0.90;;
14611;SDS011;7392;52.078;11.650;2022-09-21T02:41:03;1.20;;;1.00;;
14611;SDS011;7392;52.078;11.650;2022-09-21T02:43:36;1.37;;;0.70;;
14611;SDS011;7392;52.078;11.650;2022-09-21T02:46:09;0.90;;;0.80;;
14611;SDS011;7392;52.078;11.650;2022-09-21T02:48:43;0.80;;;0.80;;
14611;SDS011;7392;52.078;11.650;2022-09-21T02:51:15;1.20;;;1.07;;
14611;SDS011;7392;52.078;11.650;2022-09-21T02:53:47;1.37;;;0.80;;
14611;SDS011;7392;52.078;11.650;2022-09-21T02:56:18;1.23;;;0.93;;
14611;SDS011;7392;52.078;11.650;2022-09-21T02:58:48;0.73;;;0.70;;
14611;SDS011;7392;52.078;11.650;2022-09-21T03:01:20;0.53;;;0.53;;
14611;SDS011;7392;52.078;11.650;2022-09-21T03:03:51;0.90;;;0.80;;
14611;SDS011;7392;52.078;11.650;2022-09-21T03:06:19;1.10;;;0.93;;
14611;SDS011;7392;52.078;11.650;2022-09-21T03:08:47;1.30;;;1.00;;
14611;SDS011;7392;52.078;11.650;2022-09-21T03:11:15;1.00;;;0.90;;
14611;SDS011;7392;52.078;11.650;2022-09-21T03:13:43;1.67;;;1.10;;
14611;SDS011;7392;52.078;11.650;2022-09-21T03:16:11;1.03;;;0.80;;
14611;SDS011;7392;52.078;11.650;2022-09-21T03:18:41;1.03;;;0.70;;
14611;SDS011;7392;52.078;11.650;2022-09-21T03:21:09;0.60;;;0.60;;
14611;SDS011;7392;52.078;11.650;2022-09-21T03:23:38;1.90;;;0.80;;
14611;SDS011;7392;52.078;11.650;2022-09-21T03:26:06;1.10;;;0.83;;
14611;SDS011;7392;52.078;11.650;2022-09-21T03:28:34;1.60;;;1.00;;
14611;SDS011;7392;52.078;11.650;2022-09-21T03:31:02;1.93;;;1.00;;
14611;SDS011;7392;52.078;11.650;2022-09-21T03:33:32;2.03;;;0.97;;
14611;SDS011;7392;52.078;11.650;2022-09-21T03:36:01;2.30;;;0.70;;
14611;SDS011;7392;52.078;11.650;2022-09-21T03:38:29;1.40;;;0.97;;
14611;SDS011;7392;52.078;11.650;2022-09-21T03:40:57;1.17;;;0.77;;
14611;SDS011;7392;52.078;11.650;2022-09-21T03:43:24;1.50;;;1.00;;
14611;SDS011;7392;52.078;11.650;2022-09-21T03:45:52;1.87;;;1.20;;
14611;SDS011;7392;52.078;11.650;2022-09-21T03:48:20;1.17;;;0.97;;
14611;SDS011;7392;52.078;11.650;2022-09-21T03:50:48;0.90;;;0.80;;
14611;SDS011;7392;52.078;11.650;2022-09-21T03:53:17;1.17;;;0.90;;
14611;SDS011;7392;52.078;11.650;2022-09-21T03:55:45;1.00;;;0.90;;
14611;SDS011;7392;52.078;11.650;2022-09-21T03:58:13;1.20;;;1.10;;
14611;SDS011;7392;52.078;11.650;2022-09-21T04:00:41;0.70;;;0.70;;
14611;SDS011;7392;52.078;11.650;2022-09-21T04:03:09;1.70;;;0.90;;
14611;SDS011;7392;52.078;11.650;2022-09-21T04:05:37;0.80;;;0.80;;
14611;SDS011;7392;52.078;11.650;2022-09-21T04:08:05;1.37;;;0.90;;
14611;SDS011;7392;52.078;11.650;2022-09-21T04:10:37;1.10;;;0.87;;
14611;SDS011;7392;52.078;11.650;2022-09-21T04:13:07;0.73;;;0.60;;
14611;SDS011;7392;52.078;11.650;2022-09-21T04:15:35;0.60;;;0.60;;
14611;SDS011;7392;52.078;11.650;2022-09-21T04:18:02;1.03;;;0.80;;
14611;SDS011;7392;52.078;11.650;2022-09-21T04:20:30;1.70;;;0.90;;
14611;SDS011;7392;52.078;11.650;2022-09-21T04:22:58;1.00;;;0.90;;
14611;SDS011;7392;52.078;11.650;2022-09-21T04:25:26;1.00;;;0.77;;
14611;SDS011;7392;52.078;11.650;2022-09-21T04:27:55;0.83;;;0.70;;
14611;SDS011;7392;52.078;11.650;2022-09-21T04:30:22;2.77;;;0.90;;
14611;SDS011;7392;52.078;11.650;2022-09-21T04:32:50;2.43;;;1.20;;
14611;SDS011;7392;52.078;11.650;2022-09-21T04:35:18;0.70;;;0.70;;
14611;SDS011;7392;52.078;11.650;2022-09-21T04:37:46;2.30;;;1.30;;
14611;SDS011;7392;52.078;11.650;2022-09-21T04:40:13;1.87;;;1.30;;
14611;SDS011;7392;52.078;11.650;2022-09-21T04:42:42;1.77;;;1.30;;
14611;SDS011;7392;52.078;11.650;2022-09-21T04:45:11;1.30;;;1.20;;
14611;SDS011;7392;52.078;11.650;2022-09-21T04:47:39;1.40;;;1.20;;
14611;SDS011;7392;52.078;11.650;2022-09-21T04:50:07;2.13;;;1.53;;
14611;SDS011;7392;52.078;11.650;2022-09-21T04:52:35;1.23;;;1.10;;
14611;SDS011;7392;52.078;11.650;2022-09-21T04:55:03;1.53;;;1.30;;
14611;SDS011;7392;52.078;11.650;2022-09-21T04:57:32;1.83;;;1.60;;
14611;SDS011;7392;52.078;11.650;2022-09-21T05:00:01;1.40;;;1.30;;
14611;SDS011;7392;52.078;11.650;2022-09-21T05:02:30;1.70;;;1.23;;
14611;SDS011;7392;52.078;11.650;2022-09-21T05:04:58;2.07;;;1.03;;
14611;SDS011;7392;52.078;11.650;2022-09-21T05:07:25;1.43;;;1.30;;
14611;SDS011;7392;52.078;11.650;2022-09-21T05:09:53;1.33;;;1.20;;
14611;SDS011;7392;52.078;11.650;2022-09-21T05:12:29;1.00;;;0.90;;
14611;SDS011;7392;52.078;11.650;2022-09-21T05:14:57;1.50;;;1.13;;
14611;SDS011;7392;52.078;11.650;2022-09-21T05:17:25;1.73;;;1.00;;
14611;SDS011;7392;52.078;11.650;2022-09-21T05:19:54;1.23;;;1.00;;
14611;SDS011;7392;52.078;11.650;2022-09-21T05:22:22;1.03;;;0.93;;
14611;SDS011;7392;52.078;11.650;2022-09-21T05:24:50;1.17;;;1.00;;
14611;SDS011;7392;52.078;11.650;2022-09-21T05:27:17;1.40;;;0.93;;
14611;SDS011;7392;52.078;11.650;2022-09-21T05:29:45;1.60;;;0.90;;
14611;SDS011;7392;52.078;11.650;2022-09-21T05:32:16;1.07;;;1.00;;
14611;SDS011;7392;52.078;11.650;2022-09-21T05:34:52;1.40;;;1.10;;
14611;SDS011;7392;52.078;11.650;2022-09-21T05:37:35;2.53;;;1.33;;
14611;SDS011;7392;52.078;11.650;2022-09-21T05:40:08;1.37;;;1.13;;
14611;SDS011;7392;52.078;11.650;2022-09-21T05:42:38;1.50;;;1.20;;
14611;SDS011;7392;52.078;11.650;2022-09-21T05:45:06;2.20;;;1.50;;
14611;SDS011;7392;52.078;11.650;2022-09-21T05:47:37;1.70;;;1.20;;
14611;SDS011;7392;52.078;11.650;2022-09-21T05:50:16;1.40;;;1.00;;
14611;SDS011;7392;52.078;11.650;2022-09-21T05:52:52;1.57;;;1.13;;
14611;SDS011;7392;52.078;11.650;2022-09-21T05:55:31;1.30;;;1.03;;
14611;SDS011;7392;52.078;11.650;2022-09-21T05:58:09;1.43;;;1.13;;
14611;SDS011;7392;52.078;11.650;2022-09-21T06:00:50;1.47;;;1.30;;
14611;SDS011;7392;52.078;11.650;2022-09-21T06:03:27;1.33;;;1.03;;
14611;SDS011;7392;52.078;11.650;2022-09-21T06:05:57;1.20;;;1.00;;
14611;SDS011;7392;52.078;11.650;2022-09-21T06:08:25;1.17;;;1.00;;
14611;SDS011;7392;52.078;11.650;2022-09-21T06:10:53;1.20;;;1.10;;
14611;SDS011;7392;52.078;11.650;2022-09-21T06:13:21;0.90;;;0.90;;
14611;SDS011;7392;52.078;11.650;2022-09-21T06:15:49;3.17;;;1.47;;
14611;SDS011;7392;52.078;11.650;2022-09-21T06:18:17;1.20;;;1.10;;
14611;SDS011;7392;52.078;11.650;2022-09-21T06:20:44;1.93;;;1.37;;
14611;SDS011;7392;52.078;11.650;2022-09-21T06:23:14;1.43;;;1.27;;
14611;SDS011;7392;52.078;11.650;2022-09-21T06:25:41;2.00;;;1.10;;
14611;SDS011;7392;52.078;11.650;2022-09-21T06:28:10;1.20;;;1.10;;
14611;SDS011;7392;52.078;11.650;2022-09-21T06:30:39;1.40;;;1.30;;
14611;SDS011;7392;52.078;11.650;2022-09-21T06:33:07;1.90;;;1.70;;
14611;SDS011;7392;52.078;11.650;2022-09-21T06:35:36;2.17;;;1.50;;
14611;SDS011;7392;52.078;11.650;2022-09-21T06:38:06;1.70;;;1.60;;
14611;SDS011;7392;52.078;11.650;2022-09-21T06:40:35;2.10;;;1.90;;
14611;SDS011;7392;52.078;11.650;2022-09-21T06:43:03;1.87;;;1.70;;
14611;SDS011;7392;52.078;11.650;2022-09-21T06:45:31;3.07;;;2.80;;
14611;SDS011;7392;52.078;11.650;2022-09-21T06:47:59;3.50;;;3.10;;
14611;SDS011;7392;52.078;11.650;2022-09-21T06:50:27;3.60;;;3.20;;
14611;SDS011;7392;52.078;11.650;2022-09-21T06:52:58;4.33;;;3.40;;
14611;SDS011;7392;52.078;11.650;2022-09-21T06:55:25;5.77;;;3.97;;
14611;SDS011;7392;52.078;11.650;2022-09-21T06:57:59;5.60;;;3.33;;
14611;SDS011;7392;52.078;11.650;2022-09-21T07:00:28;4.40;;;3.07;;
14611;SDS011;7392;52.078;11.650;2022-09-21T07:02:56;4.50;;;3.67;;
14611;SDS011;7392;52.078;11.650;2022-09-21T07:05:23;4.03;;;3.03;;
14611;SDS011;7392;52.078;11.650;2022-09-21T07:07:55;3.37;;;3.00;;
14611;SDS011;7392;52.078;11.650;2022-09-21T07:10:23;5.07;;;3.20;;
14611;SDS011;7392;52.078;11.650;2022-09-21T07:12:52;4.00;;;2.50;;
14611;SDS011;7392;52.078;11.650;2022-09-21T07:15:20;3.03;;;2.57;;
14611;SDS011;7392;52.078;11.650;2022-09-21T07:17:48;3.53;;;2.40;;
14611;SDS011;7392;52.078;11.650;2022-09-21T07:20:30;2.70;;;2.37;;
14611;SDS011;7392;52.078;11.650;2022-09-21T07:22:57;3.53;;;2.60;;
14611;SDS011;7392;52.078;11.650;2022-09-21T07:25:25;2.77;;;2.13;;
14611;SDS011;7392;52.078;11.650;2022-09-21T07:27:53;2.10;;;1.90;;
14611;SDS011;7392;52.078;11.650;2022-09-21T07:30:22;2.57;;;2.37;;
14611;SDS011;7392;52.078;11.650;2022-09-21T07:32:49;3.47;;;2.47;;
14611;SDS011;7392;52.078;11.650;2022-09-21T07:35:17;3.17;;;2.13;;
14611;SDS011;7392;52.078;11.650;2022-09-21T07:37:45;3.00;;;2.33;;
14611;SDS011;7392;52.078;11.650;2022-09-21T07:40:13;3.43;;;2.40;;
14611;SDS011;7392;52.078;11.650;2022-09-21T07:42:40;3.10;;;2.10;;
14611;SDS011;7392;52.078;11.650;2022-09-21T07:45:10;5.80;;;3.73;;
14611;SDS011;7392;52.078;11.650;2022-09-21T07:47:39;4.13;;;2.70;;
14611;SDS011;7392;52.078;11.650;2022-09-21T07:50:07;3.73;;;2.90;;
14611;SDS011;7392;52.078;11.650;2022-09-21T07:52:35;4.87;;;3.17;;
14611;SDS011;7392;52.078;11.650;2022-09-21T07:55:03;3.83;;;2.57;;
14611;SDS011;7392;52.078;11.650;2022-09-21T07:57:31;3.10;;;2.10;;
14611;SDS011;7392;52.078;11.650;2022-09-21T08:00:16;2.63;;;2.07;;
14611;SDS011;7392;52.078;11.650;2022-09-21T08:02:45;3.10;;;2.37;;
14611;SDS011;7392;52.078;11.650;2022-09-21T08:05:13;1.97;;;1.77;;
14611;SDS011;7392;52.078;11.650;2022-09-21T08:07:41;2.30;;;1.90;;
14611;SDS011;7392;52.078;11.650;2022-09-21T08:10:09;2.57;;;1.80;;
14611;SDS011;7392;52.078;11.650;2022-09-21T08:12:37;1.53;;;1.40;;
14611;SDS011;7392;52.078;11.650;2022-09-21T08:15:05;3.10;;;2.07;;
14611;SDS011;7392;52.078;11.650;2022-09-21T08:17:51;2.77;;;2.17;;
14611;SDS011;7392;52.078;11.650;2022-09-21T08:20:19;2.73;;;2.20;;
14611;SDS011;7392;52.078;11.650;2022-09-21T08:22:48;3.57;;;1.73;;
14611;SDS011;7392;52.078;11.650;2022-09-21T08:25:18;2.23;;;1.70;;
14611;SDS011;7392;52.078;11.650;2022-09-21T08:27:46;3.43;;;2.37;;
14611;SDS011;7392;52.078;11.650;2022-09-21T08:30:14;3.60;;;2.50;;
14611;SDS011;7392;52.078;11.650;2022-09-21T08:32:42;2.77;;;2.00;;
14611;SDS011;7392;52.078;11.650;2022-09-21T08:35:18;2.23;;;1.87;;
14611;SDS011;7392;52.078;11.650;2022-09-21T08:37:46;3.00;;;2.37;;
14611;SDS011;7392;52.078;11.650;2022-09-21T08:40:16;5.53;;;2.77;;
14611;SDS011;7392;52.078;11.650;2022-09-21T08:42:47;3.20;;;2.30;;
14611;SDS011;7392;52.078;11.650;2022-09-21T08:45:22;2.87;;;2.10;;
14611;SDS011;7392;52.078;11.650;2022-09-21T08:47:53;2.20;;;1.87;;
14611;SDS011;7392;52.078;11.650;2022-09-21T08:50:29;2.93;;;1.97;;
14611;SDS011;7392;52.078;11.650;2022-09-21T08:53:03;1.97;;;1.73;;
14611;SDS011;7392;52.078;11.650;2022-09-21T08:55:33;1.57;;;1.40;;
14611;SDS011;7392;52.078;11.650;2022-09-21T08:58:01;1.87;;;1.30;;
14611;SDS011;7392;52.078;11.650;2022-09-21T09:00:32;2.43;;;1.23;;
14611;SDS011;7392;52.078;11.650;2022-09-21T09:03:14;1.40;;;1.13;;
14611;SDS011;7392;52.078;11.650;2022-09-21T09:06:02;2.00;;;1.13;;
14611;SDS011;7392;52.078;11.650;2022-09-21T09:11:34;1.00;;;0.80;;
14611;SDS011;7392;52.078;11.650;2022-09-21T09:14:17;2.03;;;1.30;;
14611;SDS011;7392;52.078;11.650;2022-09-21T09:17:19;2.00;;;1.10;;
14611;SDS011;7392;52.078;11.650;2022-09-21T09:19:59;1.73;;;0.97;;
14611;SDS011;7392;52.078;11.650;2022-09-21T09:22:35;1.47;;;1.10;;
14611;SDS011;7392;52.078;11.650;2022-09-21T09:25:12;1.47;;;1.00;;
14611;SDS011;7392;52.078;11.650;2022-09-21T09:27:44;1.77;;;1.10;;
14611;SDS011;7392;52.078;11.650;2022-09-21T09:30:14;1.10;;;1.00;;
14611;SDS011;7392;52.078;11.650;2022-09-21T09:32:46;1.10;;;1.00;;
14611;SDS011;7392;52.078;11.650;2022-09-21T09:35:23;0.80;;;0.80;;
14611;SDS011;7392;52.078;11.650;2022-09-21T09:37:56;0.80;;;0.80;;
14611;SDS011;7392;52.078;11.650;2022-09-21T09:40:37;0.80;;;0.70;;
14611;SDS011;7392;52.078;11.650;2022-09-21T09:43:18;1.50;;;0.90;;
14611;SDS011;7392;52.078;11.650;2022-09-21T09:46:06;1.60;;;1.10;;
14611;SDS011;7392;52.078;11.650;2022-09-21T09:48:44;1.10;;;1.00;;
14611;SDS011;7392;52.078;11.650;2022-09-21T09:51:21;0.97;;;0.80;;
14611;SDS011;7392;52.078;11.650;2022-09-21T09:53:53;1.33;;;0.90;;
14611;SDS011;7392;52.078;11.650;2022-09-21T09:56:26;1.20;;;0.90;;
14611;SDS011;7392;52.078;11.650;2022-09-21T09:58:55;0.90;;;0.70;;
14611;SDS011;7392;52.078;11.650;2022-09-21T10:01:35;0.60;;;0.60;;
14611;SDS011;7392;52.078;11.650;2022-09-21T10:04:05;0.90;;;0.80;;
14611;SDS011;7392;52.078;11.650;2022-09-21T10:06:34;1.00;;;0.80;;
14611;SDS011;7392;52.078;11.650;2022-09-21T10:09:14;0.70;;;0.70;;
14611;SDS011;7392;52.078;11.650;2022-09-21T10:11:45;0.60;;;0.60;;
14611;SDS011;7392;52.078;11.650;2022-09-21T10:14:15;0.80;;;0.80;;
14611;SDS011;7392;52.078;11.650;2022-09-21T10:16:47;0.57;;;0.57;;
14611;SDS011;7392;52.078;11.650;2022-09-21T10:19:19;0.93;;;0.80;;
14611;SDS011;7392;52.078;11.650;2022-09-21T10:21:53;0.67;;;0.67;;
14611;SDS011;7392;52.078;11.650;2022-09-21T10:24:26;0.60;;;0.60;;
14611;SDS011;7392;52.078;11.650;2022-09-21T10:27:01;1.90;;;1.20;;
14611;SDS011;7392;52.078;11.650;2022-09-21T10:29:37;0.80;;;0.80;;
14611;SDS011;7392;52.078;11.650;2022-09-21T10:32:20;0.70;;;0.60;;
14611;SDS011;7392;52.078;11.650;2022-09-21T10:35:00;0.43;;;0.43;;
14611;SDS011;7392;52.078;11.650;2022-09-21T10:37:38;1.17;;;0.60;;
14611;SDS011;7392;52.078;11.650;2022-09-21T10:40:22;0.43;;;0.43;;
14611;SDS011;7392;52.078;11.650;2022-09-21T10:42:52;0.50;;;0.50;;
14611;SDS011;7392;52.078;11.650;2022-09-21T10:45:24;0.60;;;0.60;;
14611;SDS011;7392;52.078;11.650;2022-09-21T10:47:54;0.57;;;0.50;;
14611;SDS011;7392;52.078;11.650;2022-09-21T10:50:25;0.87;;;0.50;;
14611;SDS011;7392;52.078;11.650;2022-09-21T10:52:59;0.50;;;0.50;;
14611;SDS011;7392;52.078;11.650;2022-09-21T10:55:30;0.50;;;0.50;;
14611;SDS011;7392;52.078;11.650;2022-09-21T10:57:58;0.53;;;0.40;;
14611;SDS011;7392;52.078;11.650;2022-09-21T11:00:28;0.40;;;0.40;;
14611;SDS011;7392;52.078;11.650;2022-09-21T11:03:02;1.17;;;0.40;;
14611;SDS011;7392;52.078;11.650;2022-09-21T11:05:55;0.50;;;0.50;;
14611;SDS011;7392;52.078;11.650;2022-09-21T11:08:26;0.60;;;0.50;;
14611;SDS011;7392;52.078;11.650;2022-09-21T11:11:02;0.47;;;0.47;;
14611;SDS011;7392;52.078;11.650;2022-09-21T11:13:40;0.53;;;0.50;;
14611;SDS011;7392;52.078;11.650;2022-09-21T11:16:14;0.80;;;0.70;;
14611;SDS011;7392;52.078;11.650;2022-09-21T11:18:48;0.70;;;0.70;;
14611;SDS011;7392;52.078;11.650;2022-09-21T11:21:28;0.40;;;0.40;;
14611;SDS011;7392;52.078;11.650;2022-09-21T11:24:03;0.50;;;0.50;;
14611;SDS011;7392;52.078;11.650;2022-09-21T11:26:40;0.30;;;0.30;;
14611;SDS011;7392;52.078;11.650;2022-09-21T11:29:14;0.70;;;0.33;;
14611;SDS011;7392;52.078;11.650;2022-09-21T11:31:54;0.20;;;0.20;;
14611;SDS011;7392;52.078;11.650;2022-09-21T11:34:41;0.27;;;0.27;;
14611;SDS011;7392;52.078;11.650;2022-09-21T11:37:24;0.40;;;0.40;;
14611;SDS011;7392;52.078;11.650;2022-09-21T11:40:17;0.10;;;0.10;;
14611;SDS011;7392;52.078;11.650;2022-09-21T11:42:59;0.20;;;0.20;;
14611;SDS011;7392;52.078;11.650;2022-09-21T11:45:48;0.23;;;0.23;;
14611;SDS011;7392;52.078;11.650;2022-09-21T11:48:33;0.20;;;0.20;;
14611;SDS011;7392;52.078;11.650;2022-09-21T11:51:14;0.20;;;0.20;;
14611;SDS011;7392;52.078;11.650;2022-09-21T11:54:04;0.30;;;0.30;;
14611;SDS011;7392;52.078;11.650;2022-09-21T11:56:47;0.37;;;0.27;;
14611;SDS011;7392;52.078;11.650;2022-09-21T11:59:25;0.63;;;0.30;;
14611;SDS011;7392;52.078;11.650;2022-09-21T12:02:18;0.20;;;0.20;;
14611;SDS011;7392;52.078;11.650;2022-09-21T12:04:59;0.17;;;0.17;;
14611;SDS011;7392;52.078;11.650;2022-09-21T12:07:41;0.90;;;0.37;;
14611;SDS011;7392;52.078;11.650;2022-09-21T12:10:31;0.20;;;0.20;;
14611;SDS011;7392;52.078;11.650;2022-09-21T12:13:05;0.03;;;0.03;;
14611;SDS011;7392;52.078;11.650;2022-09-21T12:15:43;0.20;;;0.20;;
14611;SDS011;7392;52.078;11.650;2022-09-21T12:18:18;0.30;;;0.27;;
14611;SDS011;7392;52.078;11.650;2022-09-21T12:20:55;0.10;;;0.10;;
14611;SDS011;7392;52.078;11.650;2022-09-21T12:23:39;0.17;;;0.17;;
14611;SDS011;7392;52.078;11.650;2022-09-21T12:26:10;0.30;;;0.30;;
14611;SDS011;7392;52.078;11.650;2022-09-21T12:28:44;0.30;;;0.30;;
14611;SDS011;7392;52.078;11.650;2022-09-21T12:31:19;0.27;;;0.27;;
14611;SDS011;7392;52.078;11.650;2022-09-21T12:33:51;0.30;;;0.30;;
14611;SDS011;7392;52.078;11.650;2022-09-21T12:36:24;0.47;;;0.47;;
14611;SDS011;7392;52.078;11.650;2022-09-21T12:38:57;0.20;;;0.20;;
14611;SDS011;7392;52.078;11.650;2022-09-21T12:41:32;0.10;;;0.10;;
14611;SDS011;7392;52.078;11.650;2022-09-21T12:44:11;0.37;;;0.27;;
14611;SDS011;7392;52.078;11.650;2022-09-21T12:46:45;0.30;;;0.20;;
14611;SDS011;7392;52.078;11.650;2022-09-21T12:49:19;0.30;;;0.30;;
14611;SDS011;7392;52.078;11.650;2022-09-21T12:51:52;0.20;;;0.20;;
14611;SDS011;7392;52.078;11.650;2022-09-21T12:54:25;0.20;;;0.20;;
14611;SDS011;7392;52.078;11.650;2022-09-21T12:57:03;0.33;;;0.33;;
14611;SDS011;7392;52.078;11.650;2022-09-21T13:00:06;0.57;;;0.50;;
14611;SDS011;7392;52.078;11.650;2022-09-21T13:02:40;0.60;;;0.50;;
14611;SDS011;7392;52.078;11.650;2022-09-21T13:05:15;0.47;;;0.33;;
14611;SDS011;7392;52.078;11.650;2022-09-21T13:07:58;0.93;;;0.50;;
14611;SDS011;7392;52.078;11.650;2022-09-21T13:10:41;0.50;;;0.40;;
14611;SDS011;7392;52.078;11.650;2022-09-21T13:13:17;0.53;;;0.33;;
14611;SDS011;7392;52.078;11.650;2022-09-21T13:15:50;0.40;;;0.37;;
14611;SDS011;7392;52.078;11.650;2022-09-21T13:18:22;0.30;;;0.30;;
14611;SDS011;7392;52.078;11.650;2022-09-21T13:20:52;0.33;;;0.30;;
14611;SDS011;7392;52.078;11.650;2022-09-21T13:23:23;0.30;;;0.30;;
14611;SDS011;7392;52.078;11.650;2022-09-21T13:25:59;0.37;;;0.37;;
14611;SDS011;7392;52.078;11.650;2022-09-21T13:31:42;0.30;;;0.30;;
14611;SDS011;7392;52.078;11.650;2022-09-21T13:34:25;0.20;;;0.20;;
14611;SDS011;7392;52.078;11.650;2022-09-21T13:43:14;0.47;;;0.30;;
14611;SDS011;7392;52.078;11.650;2022-09-21T13:45:51;0.43;;;0.40;;
14611;SDS011;7392;52.078;11.650;2022-09-21T13:48:21;0.20;;;0.20;;
14611;SDS011;7392;52.078;11.650;2022-09-21T13:50:56;0.40;;;0.40;;
14611;SDS011;7392;52.078;11.650;2022-09-21T13:53:29;0.43;;;0.43;;
14611;SDS011;7392;52.078;11.650;2022-09-21T13:56:04;0.30;;;0.20;;
14611;SDS011;7392;52.078;11.650;2022-09-21T13:58:35;0.53;;;0.33;;
14611;SDS011;7392;52.078;11.650;2022-09-21T14:01:14;0.20;;;0.20;;
14611;SDS011;7392;52.078;11.650;2022-09-21T14:04:14;0.40;;;0.40;;
14611;SDS011;7392;52.078;11.650;2022-09-21T14:06:49;0.93;;;0.30;;
14611;SDS011;7392;52.078;11.650;2022-09-21T14:09:21;0.63;;;0.30;;
14611;SDS011;7392;52.078;11.650;2022-09-21T14:11:53;0.40;;;0.30;;
14611;SDS011;7392;52.078;11.650;2022-09-21T14:14:25;0.40;;;0.40;;
14611;SDS011;7392;52.078;11.650;2022-09-21T14:16:57;0.20;;;0.20;;
14611;SDS011;7392;52.078;11.650;2022-09-21T14:22:34;0.20;;;0.20;;
14611;SDS011;7392;52.078;11.650;2022-09-21T14:25:25;0.20;;;0.20;;
14611;SDS011;7392;52.078;11.650;2022-09-21T14:27:59;0.10;;;0.10;;
14611;SDS011;7392;52.078;11.650;2022-09-21T14:30:32;0.10;;;0.10;;
14611;SDS011;7392;52.078;11.650;2022-09-21T14:33:13;0.30;;;0.30;;
14611;SDS011;7392;52.078;11.650;2022-09-21T14:35:47;0.10;;;0.10;;
14611;SDS011;7392;52.078;11.650;2022-09-21T14:38:21;1.10;;;0.30;;
14611;SDS011;7392;52.078;11.650;2022-09-21T14:40:53;0.47;;;0.40;;
14611;SDS011;7392;52.078;11.650;2022-09-21T14:43:24;0.30;;;0.30;;
14611;SDS011;7392;52.078;11.650;2022-09-21T14:46:00;0.40;;;0.27;;
14611;SDS011;7392;52.078;11.650;2022-09-21T14:48:41;0.13;;;0.10;;
14611;SDS011;7392;52.078;11.650;2022-09-21T14:51:19;0.30;;;0.30;;
14611;SDS011;7392;52.078;11.650;2022-09-21T14:54:01;0.30;;;0.30;;
14611;SDS011;7392;52.078;11.650;2022-09-21T14:56:46;0.40;;;0.40;;
14611;SDS011;7392;52.078;11.650;2022-09-21T14:59:27;0.30;;;0.30;;
14611;SDS011;7392;52.078;11.650;2022-09-21T15:02:10;0.70;;;0.33;;
14611;SDS011;7392;52.078;11.650;2022-09-21T15:04:46;0.97;;;0.50;;
14611;SDS011;7392;52.078;11.650;2022-09-21T15:07:33;0.30;;;0.30;;
14611;SDS011;7392;52.078;11.650;2022-09-21T15:10:25;0.30;;;0.30;;
14611;SDS011;7392;52.078;11.650;2022-09-21T15:13:39;0.20;;;0.20;;
14611;SDS011;7392;52.078;11.650;2022-09-21T15:19:11;0.20;;;0.20;;
14611;SDS011;7392;52.078;11.650;2022-09-21T15:21:48;0.20;;;0.20;;
14611;SDS011;7392;52.078;11.650;2022-09-21T15:24:19;0.30;;;0.30;;
14611;SDS011;7392;52.078;11.650;2022-09-21T15:26:54;0.40;;;0.33;;
14611;SDS011;7392;52.078;11.650;2022-09-21T15:29:31;0.37;;;0.30;;
14611;SDS011;7392;52.078;11.650;2022-09-21T15:32:00;0.40;;;0.40;;
14611;SDS011;7392;52.078;11.650;2022-09-21T15:34:28;0.57;;;0.50;;
14611;SDS011;7392;52.078;11.650;2022-09-21T15:37:10;0.30;;;0.30;;
14611;SDS011;7392;52.078;11.650;2022-09-21T15:39:42;0.30;;;0.30;;
14611;SDS011;7392;52.078;11.650;2022-09-21T15:42:15;0.30;;;0.30;;